createdAt,value
2023-01-19T00:00:01.141Z,0.02
2023-01-19T00:01:00.297Z,0.06
2023-01-19T00:02:00.429Z,0.04
2023-01-19T00:03:00.638Z,0.22
2023-01-19T00:04:00.739Z,0.12
2023-01-19T00:05:00.886Z,0.7
2023-01-19T00:06:01.095Z,0.38
2023-01-19T00:07:01.185Z,0.64
2023-01-19T00:08:00.619Z,0.69
2023-01-19T00:09:00.487Z,1.22
2023-01-19T00:10:00.673Z,1.2
2023-01-19T00:11:00.774Z,0.74
2023-01-19T00:12:00.923Z,1.2
2023-01-19T00:13:01.624Z,0.84
2023-01-19T00:14:01.231Z,0.76
2023-01-19T00:15:00.350Z,0.83
2023-01-19T00:16:00.557Z,0.42
2023-01-19T00:17:00.639Z,0.04
2023-01-19T00:18:00.795Z,0.36
2023-01-19T00:19:00.960Z,0.64
2023-01-19T00:20:01.102Z,0.64
2023-01-19T00:21:01.228Z,0.84
2023-01-19T00:22:00.369Z,0.93
2023-01-19T00:23:00.930Z,1
2023-01-19T00:24:00.694Z,1.26
2023-01-19T00:25:00.809Z,1.22
2023-01-19T00:26:00.972Z,1.5
2023-01-19T00:27:01.108Z,1.36
2023-01-19T00:28:01.897Z,0.32
2023-01-19T00:29:00.415Z,0.02
2023-01-19T00:30:00.543Z,0.18
2023-01-19T00:31:00.702Z,0.48
2023-01-19T00:32:00.825Z,0.84
2023-01-19T00:33:01.342Z,0.78
2023-01-19T00:34:01.145Z,0.16
2023-01-19T00:35:00.267Z,1.2
2023-01-19T00:36:00.419Z,1.22
2023-01-19T00:37:00.552Z,1.02
2023-01-19T00:38:00.734Z,1.1
2023-01-19T00:39:00.862Z,1.22
2023-01-19T00:40:01.013Z,0.6
2023-01-19T00:41:01.209Z,0.2
2023-01-19T00:42:00.309Z,0.75
2023-01-19T00:43:00.866Z,0.94
2023-01-19T00:44:00.605Z,1.34
2023-01-19T00:45:00.791Z,1.18
2023-01-19T00:46:00.980Z,1.26
2023-01-19T00:47:01.088Z,1.2
2023-01-19T00:48:01.212Z,1.24
2023-01-19T00:49:00.349Z,1.4
2023-01-19T00:50:00.494Z,1.36
2023-01-19T00:51:00.653Z,1.42
2023-01-19T00:52:00.816Z,1.58
2023-01-19T00:53:01.685Z,1.52
2023-01-19T00:54:01.095Z,1.58
2023-01-19T00:55:01.260Z,1.7
2023-01-19T00:56:00.396Z,1.36
2023-01-19T00:57:00.539Z,0.34
2023-01-19T00:58:00.686Z,0.62
2023-01-19T00:59:00.836Z,0.18
2023-01-19T01:00:00.963Z,0.58
2023-01-19T01:01:01.197Z,0.44
2023-01-19T01:02:01.464Z,0.76
2023-01-19T01:03:00.822Z,0.04
2023-01-19T01:04:00.565Z,0
2023-01-19T01:05:00.709Z,0.04
2023-01-19T01:06:00.864Z,1
2023-01-19T01:07:01.012Z,0.64
2023-01-19T01:08:01.174Z,0.08
2023-01-19T01:09:00.332Z,0
2023-01-19T01:10:00.451Z,0.02
2023-01-19T01:11:00.624Z,0.04
2023-01-19T01:12:00.767Z,0.02
2023-01-19T01:13:00.893Z,0.16
2023-01-19T01:14:01.080Z,0.04
2023-01-19T01:15:01.186Z,0
2023-01-19T01:16:00.331Z,0.02
2023-01-19T01:17:00.539Z,0.2
2023-01-19T01:18:00.618Z,0
2023-01-19T01:19:00.784Z,0
2023-01-19T01:20:00.940Z,0
2023-01-19T01:21:01.100Z,0
2023-01-19T01:22:01.216Z,0.14
2023-01-19T01:23:00.713Z,0.16
2023-01-19T01:24:00.522Z,0.1
2023-01-19T01:25:00.676Z,0.08
2023-01-19T01:26:00.825Z,0.06
2023-01-19T01:27:00.964Z,0.16
2023-01-19T01:28:01.111Z,0.4
2023-01-19T01:29:01.263Z,0.26
2023-01-19T01:30:00.427Z,0.75
2023-01-19T01:31:00.555Z,1
2023-01-19T01:32:00.703Z,0.34
2023-01-19T01:33:01.311Z,0.9
2023-01-19T01:34:00.982Z,0.62
2023-01-19T01:35:01.173Z,0.18
2023-01-19T01:36:00.282Z,0
2023-01-19T01:37:00.430Z,0
2023-01-19T01:38:00.579Z,0
2023-01-19T01:39:00.731Z,0.02
2023-01-19T01:40:00.887Z,0.06
2023-01-19T01:41:01.031Z,0.24
2023-01-19T01:42:01.192Z,0.08
2023-01-19T01:43:00.704Z,0.47
2023-01-19T01:44:00.482Z,0.04
2023-01-19T01:45:00.635Z,0.1
2023-01-19T01:46:00.877Z,0.06
2023-01-19T01:47:00.928Z,0.18
2023-01-19T01:48:01.070Z,0
2023-01-19T01:49:01.222Z,0.2
2023-01-19T01:50:00.384Z,0.51
2023-01-19T01:51:00.535Z,0.6
2023-01-19T01:52:00.677Z,0.56
2023-01-19T01:53:06.379Z,0.38
2023-01-19T01:54:00.966Z,1.1
2023-01-19T01:55:01.118Z,1.22
2023-01-19T01:56:00.271Z,0.99
2023-01-19T01:57:00.439Z,0.64
2023-01-19T01:58:00.562Z,0.3
2023-01-19T01:59:00.707Z,0.36
2023-01-19T02:00:00.857Z,0.2
2023-01-19T02:01:01.133Z,0.2
2023-01-19T02:02:01.365Z,0.4
2023-01-19T02:03:00.727Z,0.18
2023-01-19T02:04:00.438Z,0.26
2023-01-19T02:05:00.617Z,0.04
2023-01-19T02:06:00.796Z,0.08
2023-01-19T02:07:00.908Z,0.1
2023-01-19T02:08:01.040Z,0.08
2023-01-19T02:09:01.201Z,0.06
2023-01-19T02:10:00.332Z,0.12
2023-01-19T02:11:00.484Z,0.12
2023-01-19T02:12:00.649Z,0.08
2023-01-19T02:13:01.281Z,0.08
2023-01-19T02:14:00.949Z,0.18
2023-01-19T02:15:01.112Z,0.06
2023-01-19T02:16:01.247Z,0.02
2023-01-19T02:17:00.435Z,0.02
2023-01-19T02:18:00.559Z,0
2023-01-19T02:19:00.701Z,0
2023-01-19T02:20:00.841Z,0
2023-01-19T02:21:00.975Z,0
2023-01-19T02:22:01.131Z,0
2023-01-19T02:23:00.675Z,0
2023-01-19T02:24:00.448Z,0
2023-01-19T02:25:00.588Z,0
2023-01-19T02:26:00.723Z,0
2023-01-19T02:27:00.871Z,0.02
2023-01-19T02:28:01.013Z,0.04
2023-01-19T02:29:01.180Z,0
2023-01-19T02:30:00.355Z,0
2023-01-19T02:31:00.498Z,0.06
2023-01-19T02:32:00.608Z,0
2023-01-19T02:33:01.243Z,0.04
2023-01-19T02:34:00.893Z,0.04
2023-01-19T02:35:01.075Z,0
2023-01-19T02:36:01.197Z,0.12
2023-01-19T02:37:00.334Z,0.16
2023-01-19T02:38:00.484Z,0.04
2023-01-19T02:39:00.625Z,0.34
2023-01-19T02:40:00.792Z,0.26
2023-01-19T02:41:00.948Z,0.22
2023-01-19T02:42:01.066Z,0.14
2023-01-19T02:43:01.687Z,0.18
2023-01-19T02:44:00.375Z,0.06
2023-01-19T02:45:00.528Z,0.18
2023-01-19T02:46:00.712Z,0.6
2023-01-19T02:47:00.831Z,0.4
2023-01-19T02:48:00.989Z,0.08
2023-01-19T02:49:01.138Z,0.54
2023-01-19T02:50:00.319Z,0.47
2023-01-19T02:51:00.413Z,0.16
2023-01-19T02:52:00.557Z,0.36
2023-01-19T02:53:01.174Z,0.04
2023-01-19T02:54:00.890Z,0.14
2023-01-19T02:55:01.036Z,0.62
2023-01-19T02:56:01.180Z,0.28
2023-01-19T02:57:00.309Z,0.08
2023-01-19T02:58:00.465Z,0.18
2023-01-19T02:59:00.632Z,0.02
2023-01-19T03:00:00.748Z,0.02
2023-01-19T03:01:01.032Z,0.04
2023-01-19T03:02:01.121Z,0.02
2023-01-19T03:03:01.580Z,0.04
2023-01-19T03:04:00.355Z,0.04
2023-01-19T03:05:00.483Z,0.04
2023-01-19T03:06:00.622Z,0.16
2023-01-19T03:07:00.789Z,0.16
2023-01-19T03:08:00.921Z,0.24
2023-01-19T03:09:01.100Z,0.14
2023-01-19T03:10:01.227Z,0.32
2023-01-19T03:11:00.358Z,0.51
2023-01-19T03:12:00.531Z,0.26
2023-01-19T03:13:01.100Z,0.18
2023-01-19T03:14:01.901Z,0.1
2023-01-19T03:15:00.955Z,0.06
2023-01-19T03:16:01.130Z,0.08
2023-01-19T03:17:01.250Z,0.4
2023-01-19T03:18:00.400Z,0.28
2023-01-19T03:19:00.570Z,0.34
2023-01-19T03:20:00.695Z,0.4
2023-01-19T03:21:00.850Z,0.56
2023-01-19T03:22:01.008Z,0.26
2023-01-19T03:23:01.655Z,0.2
2023-01-19T03:24:00.287Z,0.08
2023-01-19T03:25:00.487Z,0.08
2023-01-19T03:26:00.586Z,0.2
2023-01-19T03:27:00.735Z,0.36
2023-01-19T03:28:00.907Z,0.02
2023-01-19T03:29:01.031Z,0.08
2023-01-19T03:30:01.194Z,0.12
2023-01-19T03:31:00.369Z,0.04
2023-01-19T03:32:00.482Z,0.04
2023-01-19T03:33:01.122Z,0.04
2023-01-19T03:34:00.809Z,0
2023-01-19T03:35:00.908Z,0.06
2023-01-19T03:36:01.084Z,0.06
2023-01-19T03:37:01.229Z,0.02
2023-01-19T03:38:00.361Z,0.02
2023-01-19T03:39:00.504Z,0.02
2023-01-19T03:40:00.676Z,0
2023-01-19T03:41:00.820Z,0.04
2023-01-19T03:42:00.955Z,0.02
2023-01-19T03:43:01.565Z,0.04
2023-01-19T03:44:00.302Z,0.06
2023-01-19T03:45:00.444Z,0.1
2023-01-19T03:46:00.622Z,0.02
2023-01-19T03:47:00.750Z,0
2023-01-19T03:48:00.887Z,0.18
2023-01-19T03:49:01.044Z,0.04
2023-01-19T03:50:01.192Z,0.16
2023-01-19T03:51:00.333Z,0.06
2023-01-19T03:52:00.494Z,0.1
2023-01-19T03:53:01.107Z,0.1
2023-01-19T03:54:00.784Z,0.36
2023-01-19T03:55:00.932Z,0.12
2023-01-19T03:56:01.078Z,0.14
2023-01-19T03:57:01.220Z,0.42
2023-01-19T03:58:00.387Z,0.24
2023-01-19T03:59:00.530Z,0.1
2023-01-19T04:00:00.652Z,0.38
2023-01-19T04:01:00.981Z,0.62
2023-01-19T04:02:01.004Z,1.14
2023-01-19T04:03:01.500Z,1.62
2023-01-19T04:04:01.266Z,1.7
2023-01-19T04:05:00.410Z,1.54
2023-01-19T04:06:00.563Z,1.18
2023-01-19T04:07:00.730Z,0.98
2023-01-19T04:08:00.881Z,0.96
2023-01-19T04:09:01.012Z,1
2023-01-19T04:10:01.154Z,0.82
2023-01-19T04:11:00.317Z,0.81
2023-01-19T04:12:00.466Z,0.72
2023-01-19T04:13:01.160Z,0.82
2023-01-19T04:14:00.760Z,0.94
2023-01-19T04:15:00.909Z,1.02
2023-01-19T04:16:01.099Z,1.04
2023-01-19T04:17:01.219Z,0.98
2023-01-19T04:18:00.355Z,0.93
2023-01-19T04:19:00.504Z,0.8
2023-01-19T04:20:00.650Z,0.7
2023-01-19T04:21:00.792Z,0
2023-01-19T04:22:00.966Z,0
2023-01-19T04:23:01.531Z,0
2023-01-19T04:24:00.275Z,0
2023-01-19T04:25:00.407Z,0
2023-01-19T04:26:00.567Z,0
2023-01-19T04:27:00.733Z,0.06
2023-01-19T04:28:00.860Z,0.06
2023-01-19T04:29:01.032Z,0
2023-01-19T04:30:01.166Z,0
2023-01-19T04:31:00.356Z,0.02
2023-01-19T04:32:00.459Z,0.02
2023-01-19T04:33:00.935Z,0
2023-01-19T04:34:00.741Z,0.12
2023-01-19T04:35:00.901Z,0
2023-01-19T04:36:01.042Z,0
2023-01-19T04:37:01.189Z,0.02
2023-01-19T04:38:00.364Z,0
2023-01-19T04:39:00.474Z,0
2023-01-19T04:40:00.612Z,0.06
2023-01-19T04:41:00.761Z,0.04
2023-01-19T04:42:00.915Z,0.04
2023-01-19T04:43:01.480Z,0.04
2023-01-19T04:44:01.207Z,0.02
2023-01-19T04:45:00.369Z,0
2023-01-19T04:46:00.512Z,0
2023-01-19T04:47:00.630Z,0
2023-01-19T04:48:00.805Z,0.1
2023-01-19T04:49:00.942Z,0.06
2023-01-19T04:50:01.094Z,0.02
2023-01-19T04:51:01.238Z,0.12
2023-01-19T04:52:00.371Z,0.02
2023-01-19T04:53:01.017Z,0.06
2023-01-19T04:54:00.773Z,0.02
2023-01-19T04:55:00.815Z,0.02
2023-01-19T04:56:00.961Z,0
2023-01-19T04:57:01.114Z,0.04
2023-01-19T04:58:00.376Z,0.2
2023-01-19T04:59:00.426Z,0.1
2023-01-19T05:00:00.605Z,0
2023-01-19T05:01:00.778Z,0.18
2023-01-19T05:02:00.940Z,0.34
2023-01-19T05:03:01.550Z,0.06
2023-01-19T05:04:01.175Z,0.02
2023-01-19T05:05:00.311Z,0.02
2023-01-19T05:06:00.469Z,0.02
2023-01-19T05:07:00.608Z,0
2023-01-19T05:08:00.821Z,0.04
2023-01-19T05:09:00.946Z,0
2023-01-19T05:10:01.059Z,0.04
2023-01-19T05:11:01.205Z,0.04
2023-01-19T05:12:00.338Z,0.14
2023-01-19T05:13:00.839Z,0.34
2023-01-19T05:14:00.663Z,0.62
2023-01-19T05:15:00.794Z,0.52
2023-01-19T05:16:01.029Z,0.68
2023-01-19T05:17:01.094Z,0.22
2023-01-19T05:18:01.239Z,0.48
2023-01-19T05:19:00.462Z,0.08
2023-01-19T05:20:00.576Z,0.46
2023-01-19T05:21:00.683Z,0.12
2023-01-19T05:22:00.838Z,0.1
2023-01-19T05:23:01.341Z,0.26
2023-01-19T05:24:01.143Z,0.36
2023-01-19T05:25:00.277Z,0.37
2023-01-19T05:26:00.434Z,0.58
2023-01-19T05:27:00.625Z,0.64
2023-01-19T05:28:00.761Z,0.52
2023-01-19T05:29:00.896Z,0.58
2023-01-19T05:30:01.025Z,0.34
2023-01-19T05:31:01.323Z,0.32
2023-01-19T05:32:00.308Z,0.63
2023-01-19T05:33:00.695Z,0.3
2023-01-19T05:34:00.615Z,0.28
2023-01-19T05:35:00.775Z,0.28
2023-01-19T05:36:00.909Z,0.76
2023-01-19T05:37:01.051Z,0.38
2023-01-19T05:38:01.201Z,0.14
2023-01-19T05:39:00.369Z,0.08
2023-01-19T05:40:00.555Z,0.08
2023-01-19T05:41:00.646Z,0.12
2023-01-19T05:42:00.787Z,0.04
2023-01-19T05:43:01.668Z,0.04
2023-01-19T05:44:01.113Z,0.04
2023-01-19T05:45:01.273Z,0.52
2023-01-19T05:46:00.390Z,0.65
2023-01-19T05:47:00.654Z,0.54
2023-01-19T05:48:00.694Z,0.54
2023-01-19T05:49:00.843Z,0.5
2023-01-19T05:50:01.004Z,0.16
2023-01-19T05:51:01.135Z,0.4
2023-01-19T05:52:00.284Z,0
2023-01-19T05:53:00.768Z,0
2023-01-19T05:54:00.593Z,0.08
2023-01-19T05:55:00.752Z,0
2023-01-19T05:56:00.913Z,0
2023-01-19T05:57:01.027Z,0.24
2023-01-19T05:58:01.163Z,0.14
2023-01-19T05:59:00.318Z,0.04
2023-01-19T06:00:00.471Z,0.3
2023-01-19T06:01:00.650Z,0.22
2023-01-19T06:02:00.775Z,0.52
2023-01-19T06:03:01.334Z,0.26
2023-01-19T06:04:01.067Z,0.84
2023-01-19T06:05:01.222Z,0.56
2023-01-19T06:06:00.375Z,1.16
2023-01-19T06:07:00.508Z,1.02
2023-01-19T06:08:00.649Z,0.84
2023-01-19T06:09:00.805Z,0.72
2023-01-19T06:10:00.945Z,0.62
2023-01-19T06:11:01.115Z,0.24
2023-01-19T06:12:01.230Z,0.52
2023-01-19T06:13:00.708Z,0.69
2023-01-19T06:14:00.540Z,0.82
2023-01-19T06:15:00.702Z,0.4
2023-01-19T06:16:00.896Z,0.18
2023-01-19T06:17:00.979Z,0.36
2023-01-19T06:18:01.122Z,0.04
2023-01-19T06:19:00.235Z,0
2023-01-19T06:20:00.400Z,0.06
2023-01-19T06:21:00.540Z,0.02
2023-01-19T06:22:00.677Z,0.04
2023-01-19T06:23:01.074Z,0
2023-01-19T06:24:01.005Z,0.02
2023-01-19T06:25:01.161Z,0.02
2023-01-19T06:26:00.271Z,0
2023-01-19T06:27:00.418Z,0.06
2023-01-19T06:28:00.585Z,0.04
2023-01-19T06:29:00.708Z,0
2023-01-19T06:30:00.886Z,0.04
2023-01-19T06:31:01.071Z,0.02
2023-01-19T06:32:01.205Z,0
2023-01-19T06:33:00.516Z,0
2023-01-19T06:34:00.461Z,0.02
2023-01-19T06:35:00.625Z,0.06
2023-01-19T06:36:00.794Z,0.08
2023-01-19T06:37:00.907Z,0.1
2023-01-19T06:38:01.059Z,0.06
2023-01-19T06:39:01.213Z,0
2023-01-19T06:40:00.379Z,0.12
2023-01-19T06:41:00.518Z,0.02
2023-01-19T06:42:00.651Z,0.04
2023-01-19T06:43:01.305Z,0
2023-01-19T06:44:00.948Z,0
2023-01-19T06:45:01.117Z,0.02
2023-01-19T06:46:00.335Z,0
2023-01-19T06:47:14.618Z,0.04
2023-01-19T06:48:00.582Z,0.14
2023-01-19T06:49:00.711Z,0.08
2023-01-19T06:50:00.861Z,0.04
2023-01-19T06:51:01.015Z,0.06
2023-01-19T06:52:01.161Z,0
2023-01-19T06:53:00.572Z,0.06
2023-01-19T06:54:00.445Z,0.14
2023-01-19T06:55:00.604Z,0.02
2023-01-19T06:56:00.742Z,0.1
2023-01-19T06:57:02.724Z,0.38
2023-01-19T06:58:01.056Z,0.22
2023-01-19T06:59:01.212Z,0.6
2023-01-19T07:00:00.347Z,1.05
2023-01-19T07:01:00.646Z,1.14
2023-01-19T07:02:00.874Z,1.3
2023-01-19T07:03:01.181Z,1.26
2023-01-19T07:04:00.924Z,1.34
2023-01-19T07:05:01.085Z,0.5
2023-01-19T07:06:01.227Z,1.22
2023-01-19T07:07:00.381Z,1.32
2023-01-19T07:08:00.529Z,0.98
2023-01-19T07:09:00.655Z,1.12
2023-01-19T07:10:00.847Z,1.99
2023-01-19T07:11:26.575Z,0.92
2023-01-19T07:12:01.097Z,1.48
2023-01-19T07:13:01.727Z,1.58
2023-01-19T07:14:00.411Z,2.09
2023-01-19T07:15:00.547Z,2.57
2023-01-19T07:16:00.705Z,2.23
2023-01-19T07:17:00.922Z,2.31
2023-01-19T07:18:01.023Z,1.16
2023-01-19T07:19:01.152Z,1.2
2023-01-19T07:20:00.323Z,1.22
2023-01-19T07:21:00.447Z,2.65
2023-01-19T07:22:00.592Z,1.86
2023-01-19T07:23:01.201Z,1.64
2023-01-19T07:24:00.883Z,1.12
2023-01-19T07:25:01.047Z,1.46
2023-01-19T07:26:01.195Z,1.3
2023-01-19T07:27:00.329Z,1.52
2023-01-19T07:28:00.512Z,1.9
2023-01-19T07:29:00.623Z,1.24
2023-01-19T07:30:00.770Z,1.7
2023-01-19T07:31:01.003Z,0.82
2023-01-19T07:32:01.071Z,1.6
2023-01-19T07:33:01.597Z,1.46
2023-01-19T07:34:00.371Z,1.52
2023-01-19T07:35:00.515Z,1.18
2023-01-19T07:36:00.659Z,1.46
2023-01-19T07:37:00.811Z,1.22
2023-01-19T07:38:00.980Z,1.46
2023-01-19T07:39:01.112Z,1.28
2023-01-19T07:40:00.260Z,1.28
2023-01-19T07:41:00.416Z,1.1
2023-01-19T07:42:00.588Z,1.68
2023-01-19T07:43:01.244Z,0.84
2023-01-19T07:44:00.862Z,2.15
2023-01-19T07:45:01.003Z,1.28
2023-01-19T07:46:01.212Z,1.06
2023-01-19T07:47:00.329Z,1.34
2023-01-19T07:48:00.456Z,1.74
2023-01-19T07:49:00.609Z,1.72
2023-01-19T07:50:00.746Z,1.86
2023-01-19T07:51:00.935Z,1.28
2023-01-19T07:52:01.059Z,1.34
2023-01-19T07:53:01.686Z,1.38
2023-01-19T07:54:00.364Z,1.24
2023-01-19T07:55:00.518Z,1.38
2023-01-19T07:56:00.674Z,1.24
2023-01-19T07:57:00.844Z,1.58
2023-01-19T07:58:00.986Z,1.24
2023-01-19T07:59:01.096Z,1.48
2023-01-19T08:00:01.249Z,2.01
2023-01-19T08:01:00.547Z,1.46
2023-01-19T08:02:00.687Z,1.48
2023-01-19T08:03:01.257Z,1.54
2023-01-19T08:04:00.845Z,1.44
2023-01-19T08:05:00.999Z,1.84
2023-01-19T08:06:01.152Z,1.97
2023-01-19T08:07:00.312Z,2.13
2023-01-19T08:08:00.465Z,1.58
2023-01-19T08:09:00.609Z,2.33
2023-01-19T08:10:00.749Z,1.82
2023-01-19T08:11:00.906Z,1.7
2023-01-19T08:12:01.043Z,1.44
2023-01-19T08:13:01.538Z,1.32
2023-01-19T08:14:00.347Z,1.46
2023-01-19T08:15:00.493Z,1.64
2023-01-19T08:16:00.680Z,1.5
2023-01-19T08:17:00.787Z,1.6
2023-01-19T08:18:00.952Z,1.88
2023-01-19T08:19:01.083Z,1.52
2023-01-19T08:20:01.240Z,1.62
2023-01-19T08:21:00.433Z,1.66
2023-01-19T08:22:00.539Z,1.6
2023-01-19T08:23:01.155Z,1.8
2023-01-19T08:24:00.873Z,1.7
2023-01-19T08:25:00.973Z,1.62
2023-01-19T08:26:01.128Z,2.59
2023-01-19T08:27:00.299Z,1.16
2023-01-19T08:28:00.441Z,2.02
2023-01-19T08:29:00.568Z,1.38
2023-01-19T08:30:00.745Z,1.92
2023-01-19T08:31:11.166Z,1.6
2023-01-19T08:32:01.174Z,2.02
2023-01-19T08:33:01.486Z,1.8
2023-01-19T08:34:00.323Z,1.56
2023-01-19T08:35:00.501Z,1.78
2023-01-19T08:36:00.614Z,2.29
2023-01-19T08:37:00.767Z,2.02
2023-01-19T08:38:00.905Z,1.48
2023-01-19T08:39:01.067Z,1.52
2023-01-19T08:40:01.230Z,2.39
2023-01-19T08:41:00.360Z,1.87
2023-01-19T08:42:00.510Z,1.54
2023-01-19T08:43:01.031Z,1.72
2023-01-19T08:44:00.808Z,2
2023-01-19T08:45:00.992Z,1.74
2023-01-19T08:46:01.263Z,1.54
2023-01-19T08:47:00.275Z,1.28
2023-01-19T08:48:00.422Z,1.58
2023-01-19T08:49:00.586Z,1.62
2023-01-19T08:50:00.722Z,1.44
2023-01-19T08:51:00.867Z,1.74
2023-01-19T08:52:01.012Z,1.54
2023-01-19T08:53:01.463Z,1.72
2023-01-19T08:54:00.305Z,2.07
2023-01-19T08:55:00.475Z,1.86
2023-01-19T08:56:00.616Z,1.74
2023-01-19T08:57:00.763Z,1.66
2023-01-19T08:58:01.350Z,1.98
2023-01-19T08:59:09.346Z,1.32
2023-01-19T09:00:01.197Z,1.14
2023-01-19T09:01:01.999Z,1.66
2023-01-19T09:02:00.627Z,1.44
2023-01-19T09:03:00.993Z,1.42
2023-01-19T09:04:00.796Z,1.2
2023-01-19T09:05:00.954Z,0.6
2023-01-19T09:06:01.069Z,0.98
2023-01-19T09:07:01.224Z,1.48
2023-01-19T09:08:00.578Z,0.83
2023-01-19T09:09:00.521Z,1.44
2023-01-19T09:10:00.673Z,1.28
2023-01-19T09:11:00.801Z,1.08
2023-01-19T09:12:00.936Z,1.58
2023-01-19T09:13:01.105Z,1.58
2023-01-19T09:14:01.249Z,1.34
2023-01-19T09:15:00.432Z,0.55
2023-01-19T09:16:00.607Z,1.9
2023-01-19T09:17:00.718Z,1.88
2023-01-19T09:18:01.331Z,1.1
2023-01-19T09:19:01.026Z,1.32
2023-01-19T09:20:01.220Z,1.24
2023-01-19T09:21:00.320Z,1.38
2023-01-19T09:22:00.475Z,1.38
2023-01-19T09:23:00.618Z,1
2023-01-19T09:24:00.761Z,1.28
2023-01-19T09:25:00.956Z,1.32
2023-01-19T09:26:01.061Z,1.68
2023-01-19T09:27:01.220Z,1.56
2023-01-19T09:28:00.836Z,0.75
2023-01-19T09:29:00.509Z,1.7
2023-01-19T09:30:00.690Z,1.36
2023-01-19T09:31:00.925Z,1.72
2023-01-19T09:32:00.978Z,2.04
2023-01-19T09:33:01.103Z,1.78
2023-01-19T09:34:01.264Z,1.48
2023-01-19T09:35:00.432Z,2.31
2023-01-19T09:36:00.551Z,2.69
2023-01-19T09:37:00.709Z,2.39
2023-01-19T09:38:01.110Z,1.78
2023-01-19T09:39:01.006Z,2
2023-01-19T09:40:01.191Z,1.5
2023-01-19T09:41:00.306Z,1.6
2023-01-19T09:42:00.449Z,1.5
2023-01-19T09:43:00.627Z,1.8
2023-01-19T09:44:00.756Z,2.93
2023-01-19T09:45:01.033Z,3.53
2023-01-19T09:46:01.049Z,4.73
2023-01-19T09:47:01.196Z,4.21
2023-01-19T09:48:00.973Z,4.36
2023-01-19T09:49:00.496Z,4.09
2023-01-19T09:50:00.639Z,2.39
2023-01-19T09:51:00.766Z,1.62
2023-01-19T09:52:00.922Z,1.86
2023-01-19T09:53:01.479Z,2.41
2023-01-19T09:54:01.292Z,1.6
2023-01-19T09:55:00.406Z,3.29
2023-01-19T09:56:00.544Z,2.17
2023-01-19T09:57:00.668Z,1.72
2023-01-19T09:58:01.381Z,2.89
2023-01-19T09:59:00.977Z,1.42
2023-01-19T10:00:01.111Z,1.46
2023-01-19T10:01:01.426Z,1.7
2023-01-19T10:02:00.396Z,3.47
2023-01-19T10:03:00.886Z,2.03
2023-01-19T10:04:00.710Z,0.92
2023-01-19T10:05:00.829Z,3.59
2023-01-19T10:06:00.996Z,2.95
2023-01-19T10:07:01.159Z,1.52
2023-01-19T10:08:00.589Z,1.68
2023-01-19T10:09:00.421Z,2.13
2023-01-19T10:10:00.614Z,0.32
2023-01-19T10:11:00.732Z,1.3
2023-01-19T10:12:00.905Z,2.53
2023-01-19T10:13:01.451Z,4.41
2023-01-19T10:14:01.178Z,2.09
2023-01-19T10:15:00.314Z,2.19
2023-01-19T10:16:00.503Z,3.85
2023-01-19T10:17:00.609Z,1.62
2023-01-19T10:18:01.103Z,2.07
2023-01-19T10:19:00.913Z,2.57
2023-01-19T10:20:01.059Z,2.91
2023-01-19T10:21:01.240Z,3.77
2023-01-19T10:22:00.353Z,3.77
2023-01-19T10:23:00.842Z,2.87
2023-01-19T10:24:00.685Z,2.39
2023-01-19T10:25:00.833Z,1.34
2023-01-19T10:26:01.007Z,1.46
2023-01-19T10:27:01.132Z,2.29
2023-01-19T10:28:01.276Z,2.89
2023-01-19T10:29:00.434Z,4.48
2023-01-19T10:30:00.528Z,4.87
2023-01-19T10:31:00.958Z,3.11
2023-01-19T10:32:00.871Z,4.21
2023-01-19T10:33:01.200Z,3.99
2023-01-19T10:34:01.146Z,2.85
2023-01-19T10:35:00.305Z,2.39
2023-01-19T10:36:00.410Z,2.95
2023-01-19T10:37:00.586Z,2.21
2023-01-19T10:38:00.750Z,3.13
2023-01-19T10:39:00.894Z,3.43
2023-01-19T10:40:01.030Z,4.45
2023-01-19T10:41:01.149Z,2.79
2023-01-19T10:42:00.338Z,2.03
2023-01-19T10:43:00.988Z,1.9
2023-01-19T10:44:00.657Z,2.31
2023-01-19T10:45:00.795Z,2.85
2023-01-19T10:46:00.920Z,3.03
2023-01-19T10:47:01.043Z,3.87
2023-01-19T10:48:01.271Z,5.39
2023-01-19T10:49:00.333Z,4.38
2023-01-19T10:50:00.536Z,3.17
2023-01-19T10:51:00.660Z,2.23
2023-01-19T10:52:00.791Z,3.15
2023-01-19T10:53:01.417Z,2.29
2023-01-19T10:54:01.140Z,3.77
2023-01-19T10:55:01.338Z,1.72
2023-01-19T10:56:00.393Z,4.28
2023-01-19T10:57:00.560Z,1.62
2023-01-19T10:58:00.725Z,1.7
2023-01-19T10:59:00.858Z,2.73
2023-01-19T11:00:01.028Z,4.27
2023-01-19T11:01:01.462Z,5.15
2023-01-19T11:02:00.486Z,2.7
2023-01-19T11:03:00.902Z,4.99
2023-01-19T11:04:00.626Z,2.31
2023-01-19T11:05:00.797Z,2.63
2023-01-19T11:06:00.884Z,1.94
2023-01-19T11:07:01.035Z,3.59
2023-01-19T11:08:01.163Z,2.02
2023-01-19T11:09:00.320Z,2.62
2023-01-19T11:10:00.484Z,2.25
2023-01-19T11:11:00.621Z,1.78
2023-01-19T11:12:00.791Z,2.08
2023-01-19T11:13:01.554Z,1.36
2023-01-19T11:14:01.060Z,2.17
2023-01-19T11:15:01.217Z,2.81
2023-01-19T11:16:00.496Z,2.11
2023-01-19T11:17:00.511Z,2.23
2023-01-19T11:18:00.675Z,2.37
2023-01-19T11:19:00.792Z,4.03
2023-01-19T11:20:00.935Z,3.31
2023-01-19T11:21:01.105Z,6.18
2023-01-19T11:22:01.229Z,2.27
2023-01-19T11:23:00.790Z,2.6
2023-01-19T11:24:00.525Z,4.07
2023-01-19T11:25:00.674Z,3.69
2023-01-19T11:26:00.823Z,3.23
2023-01-19T11:27:00.967Z,4.41
2023-01-19T11:28:01.128Z,2.27
2023-01-19T11:29:00.299Z,3.45
2023-01-19T11:30:00.435Z,2.69
2023-01-19T11:31:00.638Z,3.43
2023-01-19T11:32:00.766Z,1.72
2023-01-19T11:33:01.397Z,4.57
2023-01-19T11:34:01.043Z,1.94
2023-01-19T11:35:01.163Z,5.09
2023-01-19T11:36:00.318Z,5.68
2023-01-19T11:37:00.477Z,3.67
2023-01-19T11:38:00.633Z,2.87
2023-01-19T11:39:00.753Z,3.43
2023-01-19T11:40:00.918Z,2.87
2023-01-19T11:41:01.070Z,2.63
2023-01-19T11:42:01.203Z,3.01
2023-01-19T11:43:00.714Z,3.9
2023-01-19T11:44:00.503Z,4.91
2023-01-19T11:45:00.657Z,5.29
2023-01-19T11:46:00.856Z,4.03
2023-01-19T11:47:00.991Z,3.49
2023-01-19T11:48:01.288Z,1.6
2023-01-19T11:49:01.224Z,3.57
2023-01-19T11:50:00.372Z,3.31
2023-01-19T11:51:00.530Z,1.58
2023-01-19T11:52:00.660Z,2.02
2023-01-19T11:53:00.811Z,3.35
2023-01-19T11:54:00.966Z,4.23
2023-01-19T11:55:01.120Z,2.13
2023-01-19T11:56:00.290Z,3.23
2023-01-19T11:57:00.431Z,3.73
2023-01-19T11:58:00.876Z,2.27
2023-01-19T11:59:00.712Z,3.39
2023-01-19T12:00:00.851Z,3.89
2023-01-19T12:01:01.019Z,3.15
2023-01-19T12:02:01.226Z,3.31
2023-01-19T12:03:00.366Z,3.17
2023-01-19T12:04:00.440Z,2.93
2023-01-19T12:05:00.592Z,3.85
2023-01-19T12:06:00.737Z,3.55
2023-01-19T12:07:00.907Z,4.31
2023-01-19T12:08:01.577Z,2.89
2023-01-19T12:09:01.190Z,5.59
2023-01-19T12:10:00.353Z,5.5
2023-01-19T12:11:00.528Z,3.37
2023-01-19T12:12:00.629Z,3.37
2023-01-19T12:13:00.804Z,4.05
2023-01-19T12:14:00.914Z,3.53
2023-01-19T12:15:01.086Z,2.17
2023-01-19T12:16:01.236Z,4.57
2023-01-19T12:17:00.360Z,2.45
2023-01-19T12:18:00.968Z,1.28
2023-01-19T12:19:00.674Z,3.63
2023-01-19T12:20:00.831Z,3.05
2023-01-19T12:21:03.851Z,2.87
2023-01-19T12:22:01.099Z,2.33
2023-01-19T12:23:01.272Z,1.68
2023-01-19T12:24:00.502Z,2.41
2023-01-19T12:25:00.545Z,3.63
2023-01-19T12:26:00.706Z,3.65
2023-01-19T12:27:00.873Z,3.79
2023-01-19T12:28:01.012Z,4.17
2023-01-19T12:29:01.177Z,2.49
2023-01-19T12:30:00.327Z,5.62
2023-01-19T12:31:00.624Z,3.13
2023-01-19T12:32:00.755Z,3.65
2023-01-19T12:33:00.755Z,3.05
2023-01-19T12:34:00.927Z,5.23
2023-01-19T12:35:01.067Z,3.79
2023-01-19T12:36:01.244Z,2.09
2023-01-19T12:37:00.382Z,3.45
2023-01-19T12:38:00.546Z,3.33
2023-01-19T12:39:00.657Z,5.37
2023-01-19T12:40:00.810Z,2.89
2023-01-19T12:41:00.958Z,3.97
2023-01-19T12:42:01.136Z,2.71
2023-01-19T12:43:01.299Z,1.88
2023-01-19T12:44:00.396Z,2.6
2023-01-19T12:45:00.537Z,2.13
2023-01-19T12:46:00.728Z,3.87
2023-01-19T12:47:00.855Z,3.79
2023-01-19T12:48:00.990Z,1.9
2023-01-19T12:49:01.139Z,3.29
2023-01-19T12:50:00.282Z,1.68
2023-01-19T12:51:00.423Z,2.83
2023-01-19T12:52:00.569Z,3.15
2023-01-19T12:53:00.718Z,2.97
2023-01-19T12:54:00.882Z,2.37
2023-01-19T12:55:01.011Z,1.66
2023-01-19T12:56:01.292Z,3.27
2023-01-19T12:57:00.317Z,3.65
2023-01-19T12:58:00.463Z,3.61
2023-01-19T12:59:00.617Z,3.65
2023-01-19T13:00:00.754Z,4.17
2023-01-19T13:01:01.001Z,4.81
2023-01-19T13:02:01.096Z,2.81
2023-01-19T13:03:01.237Z,3.17
2023-01-19T13:04:00.357Z,2.78
2023-01-19T13:05:00.491Z,3.21
2023-01-19T13:06:00.643Z,2.23
2023-01-19T13:07:00.795Z,2.85
2023-01-19T13:08:00.932Z,1.68
2023-01-19T13:09:01.119Z,2.21
2023-01-19T13:10:01.236Z,2.71
2023-01-19T13:11:00.653Z,4.02
2023-01-19T13:12:01.167Z,2.51
2023-01-19T13:13:00.684Z,1.94
2023-01-19T13:14:00.848Z,2.59
2023-01-19T13:15:01.206Z,2.79
2023-01-19T13:16:01.198Z,3.77
2023-01-19T13:17:00.300Z,3.75
2023-01-19T13:18:00.433Z,3.81
2023-01-19T13:19:00.605Z,3.51
2023-01-19T13:20:00.732Z,2.35
2023-01-19T13:21:00.880Z,2.93
2023-01-19T13:22:01.059Z,2.35
2023-01-19T13:23:01.172Z,3.59
2023-01-19T13:24:00.338Z,2.31
2023-01-19T13:25:00.647Z,3.17
2023-01-19T13:26:00.615Z,2.59
2023-01-19T13:27:00.779Z,2.41
2023-01-19T13:28:00.919Z,1.76